Time;durP1;ratioP1;P1;durP2;ratioP2;P2;SDS_P1;SDS_P2;PMS_P1;PMS_P2;Temp;Humidity;BMP_temperature;BMP_pressure;BME280_temperature;BME280_humidity;BME280_pressure;Samples;Min_cycle;Max_cycle;Signal;HPM_P1;HPM_P2
2022/09/15 00:00:42;;;;;;;26.90;19.20;;;;;;;16.03;83.25;97462.36;88461;1273;24395;-71
2022/09/15 00:03:03;;;;;;;27.00;18.00;;;;;;;16.01;83.32;97457.75;88400;1271;100390;-70
2022/09/15 00:05:05;;;;;;;25.20;18.40;;;;;;;15.98;83.27;97448.61;88423;1273;23374;-71
2022/09/15 00:07:07;;;;;;;25.20;18.50;;;;;;;15.96;83.24;97448.40;88453;1273;24093;-69
2022/09/15 00:09:08;;;;;;;23.70;18.70;;;;;;;15.97;83.33;97444.81;88335;1272;100249;-71
2022/09/15 00:11:24;;;;;;;25.10;18.40;;;;;;;15.97;83.40;97435.19;88448;1273;24505;-70
2022/09/15 00:13:25;;;;;;;23.10;18.10;;;;;;;15.97;83.29;97427.44;88356;1273;25620;-70
2022/09/15 00:15:27;;;;;;;28.70;18.40;;;;;;;15.96;83.39;97420.15;88388;1272;100322;-69
2022/09/15 00:17:30;;;;;;;24.00;18.10;;;;;;;15.94;83.32;97419.41;88424;1273;24311;-71
2022/09/15 00:19:31;;;;;;;24.40;17.90;;;;;;;15.95;83.37;97428.41;88431;1273;22575;-71
2022/09/15 00:21:36;;;;;;;30.00;18.90;;;;;;;15.96;83.46;97429.35;88383;1273;99263;-71
2022/09/15 00:23:37;;;;;;;28.60;16.60;;;;;;;15.96;83.47;97422.05;88407;1273;22611;-71
2022/09/15 00:25:47;;;;;;;30.70;16.90;;;;;;;15.96;83.45;97414.97;88400;1273;24611;-71
2022/09/15 00:27:49;;;;;;;25.40;17.40;;;;;;;15.95;83.41;97406.79;88254;1273;99476;-71
2022/09/15 00:29:51;;;;;;;19.40;16.00;;;;;;;15.93;83.46;97404.41;88410;1273;22669;-69
2022/09/15 00:31:52;;;;;;;17.60;15.50;;;;;;;15.91;83.46;97396.34;88387;1273;22749;-70
2022/09/15 00:33:56;;;;;;;23.30;16.00;;;;;;;15.90;83.48;97388.52;88330;1273;99059;-71
2022/09/15 00:36:02;;;;;;;21.90;15.80;;;;;;;15.90;83.54;97391.08;88270;1275;24388;-69
2022/09/15 00:38:04;;;;;;;19.90;15.40;;;;;;;15.92;83.63;97392.00;88400;1273;27393;-69
2022/09/15 00:40:06;;;;;;;25.60;15.50;;;;;;;15.94;83.65;97397.35;88317;1273;22788;-71
2022/09/15 00:42:14;;;;;;;27.80;16.70;;;;;;;15.94;83.64;97397.94;88394;1273;24844;-71
2022/09/15 00:44:16;;;;;;;23.00;16.50;;;;;;;15.96;83.68;97398.10;88343;1273;99314;-71
2022/09/15 00:46:24;;;;;;;26.30;17.10;;;;;;;15.98;83.71;97394.58;88467;1273;23048;-69
2022/09/15 00:48:26;;;;;;;20.20;16.60;;;;;;;15.99;83.69;97391.27;89473;1273;23080;-71
2022/09/15 00:50:28;;;;;;;20.70;17.00;;;;;;;16.00;83.73;97384.44;88389;1273;99168;-69
2022/09/15 00:52:54;;;;;;;25.50;16.50;;;;;;;16.02;83.82;97385.55;88304;1274;22562;-71
2022/09/15 00:55:13;;;;;;;19.70;16.00;;;;;;;16.03;83.73;97381.54;88503;1273;26594;-69
2022/09/15 00:57:30;;;;;;;22.50;15.80;;;;;;;16.03;83.77;97380.83;88284;1275;100675;-72
2022/09/15 00:59:36;;;;;;;22.50;16.40;;;;;;;16.02;83.72;97374.36;88627;1273;25547;-70
2022/09/15 01:01:39;;;;;;;20.30;16.80;;;;;;;16.02;83.68;97364.67;88553;1273;22698;-70
2022/09/15 01:03:42;;;;;;;21.60;16.80;;;;;;;16.00;83.65;97362.00;88529;1273;99292;-71
2022/09/15 01:05:49;;;;;;;30.40;17.80;;;;;;;15.99;83.75;97359.96;88483;1273;23874;-70
2022/09/15 01:08:15;;;;;;;20.30;17.00;;;;;;;15.98;83.75;97355.14;88566;1273;24374;-71
2022/09/15 01:10:29;;;;;;;24.70;16.50;;;;;;;15.94;83.71;97362.20;88609;1273;22710;-72
2022/09/15 01:12:31;;;;;;;21.80;17.60;;;;;;;15.94;83.76;97367.72;88805;1273;22641;-72
2022/09/15 01:14:33;;;;;;;24.50;17.70;;;;;;;15.94;83.82;97360.77;88521;1273;99620;-70
2022/09/15 01:16:43;;;;;;;35.90;17.70;;;;;;;15.95;83.82;97349.38;88681;1273;22601;-72
2022/09/15 01:19:15;;;;;;;32.60;18.00;;;;;;;15.94;83.82;97340.41;88761;1273;25494;-72
2022/09/15 01:21:30;;;;;;;25.50;17.60;;;;;;;15.92;83.80;97337.64;88498;1274;99026;-72
2022/09/15 01:23:40;;;;;;;25.60;17.90;;;;;;;15.91;83.81;97335.95;88587;1273;24771;-70
2022/09/15 01:26:30;;;;;;;30.80;17.00;;;;;;;15.90;83.91;97331.27;88457;1274;22601;-70
2022/09/15 01:28:44;;;;;;;33.00;17.30;;;;;;;15.88;84.02;97333.34;88509;1273;27620;-71
2022/09/15 01:31:14;;;;;;;23.10;17.30;;;;;;;15.89;83.98;97337.70;88640;1272;22611;-72
2022/09/15 01:33:30;;;;;;;33.10;18.20;;;;;;;15.90;84.06;97338.64;88420;1273;99153;-72
2022/09/15 01:35:53;;;;;;;26.20;17.30;;;;;;;15.91;84.04;97337.91;88648;1273;24224;-72
2022/09/15 01:38:02;;;;;;;22.00;16.00;;;;;;;15.90;84.06;97335.68;88663;1273;22586;-72
2022/09/15 01:40:08;;;;;;;21.20;16.80;;;;;;;15.87;84.11;97331.34;88476;1275;99759;-72
2022/09/15 01:42:14;;;;;;;36.40;18.40;;;;;;;15.89;84.09;97337.38;88942;1272;22723;-72
2022/09/15 01:44:27;;;;;;;33.50;18.10;;;;;;;15.88;84.03;97330.90;88590;1273;98669;-70
2022/09/15 01:46:32;;;;;;;23.40;17.80;;;;;;;15.90;84.14;97338.00;88564;1273;25572;-71
2022/09/15 01:48:36;;;;;;;23.50;18.70;;;;;;;15.90;84.18;97336.77;88579;1273;22583;-71
2022/09/15 01:50:45;;;;;;;34.60;19.10;;;;;;;15.91;84.14;97344.77;88268;1276;99767;-71
2022/09/15 01:52:51;;;;;;;25.90;18.70;;;;;;;15.91;84.16;97345.85;88578;1273;25708;-71
2022/09/15 01:54:57;;;;;;;27.00;20.10;;;;;;;15.90;84.20;97350.92;88370;1274;22560;-73
2022/09/15 01:57:01;;;;;;;28.30;19.00;;;;;;;15.87;84.16;97353.31;88290;1273;99167;-71
2022/09/15 01:59:03;;;;;;;33.70;20.30;;;;;;;15.85;84.17;97350.89;88415;1274;22540;-71
2022/09/15 02:01:08;;;;;;;29.00;20.20;;;;;;;15.83;84.25;97348.70;88566;1273;25679;-73
2022/09/15 02:03:49;;;;;;;33.70;20.30;;;;;;;15.83;84.30;97349.98;88493;1273;99106;-71
2022/09/15 02:06:00;;;;;;;28.40;18.70;;;;;;;15.82;84.34;97342.27;88673;1273;22534;-70
2022/09/15 02:08:14;;;;;;;33.40;19.50;;;;;;;15.82;84.39;97338.05;88678;1273;25317;-72
2022/09/15 02:10:21;;;;;;;32.10;19.20;;;;;;;15.82;84.35;97334.81;88502;1273;22683;-70
2022/09/15 02:12:34;;;;;;;32.90;21.20;;;;;;;15.82;84.41;97334.41;88429;1273;22737;-72
2022/09/15 02:14:36;;;;;;;36.90;20.60;;;;;;;15.83;84.38;97335.94;88332;1273;99069;-71
2022/09/15 02:16:42;;;;;;;31.90;20.80;;;;;;;15.84;84.39;97336.08;88601;1273;22669;-71
2022/09/15 02:19:02;;;;;;;38.40;21.10;;;;;;;15.84;84.47;97336.38;88389;1275;24003;-71
2022/09/15 02:21:17;;;;;;;26.60;19.80;;;;;;;15.85;84.41;97332.43;88436;1273;99481;-70
2022/09/15 02:23:27;;;;;;;29.40;19.80;;;;;;;15.86;84.48;97325.63;89231;1273;22681;-71
2022/09/15 02:25:39;;;;;;;32.20;19.80;;;;;;;15.86;84.54;97322.45;88522;1273;25413;-71
2022/09/15 02:27:46;;;;;;;35.80;20.00;;;;;;;15.87;84.53;97320.92;88396;1273;98368;-72
2022/09/15 02:29:51;;;;;;;32.60;19.70;;;;;;;15.88;84.45;97316.95;88571;1273;24331;-70
2022/09/15 02:31:58;;;;;;;31.00;18.80;;;;;;;15.87;84.43;97309.92;88985;1273;25702;-69
2022/09/15 02:34:06;;;;;;;41.60;19.60;;;;;;;15.87;84.44;97305.84;88400;1273;99445;-71
2022/09/15 02:36:10;;;;;;;31.60;19.30;;;;;;;15.88;84.49;97305.02;88273;1274;22564;-69
2022/09/15 02:38:14;;;;;;;29.90;19.20;;;;;;;15.89;84.50;97303.16;88182;1275;99326;-72
2022/09/15 02:40:15;;;;;;;32.90;19.40;;;;;;;15.90;84.46;97302.08;88524;1273;22752;-71
2022/09/15 02:42:28;;;;;;;35.80;19.40;;;;;;;15.91;84.49;97303.73;88512;1273;22659;-71
2022/09/15 02:44:30;;;;;;;36.80;19.10;;;;;;;15.91;84.49;97297.70;88371;1273;100514;-71
2022/09/15 02:46:32;;;;;;;43.50;20.80;;;;;;;15.90;84.52;97297.05;88427;1273;22626;-70
2022/09/15 02:48:34;;;;;;;26.70;18.30;;;;;;;15.90;84.52;97296.73;88459;1273;22813;-71
2022/09/15 02:50:37;;;;;;;31.60;18.20;;;;;;;15.90;84.53;97291.63;88409;1273;99374;-70
2022/09/15 02:52:39;;;;;;;40.40;19.00;;;;;;;15.90;84.54;97292.47;88294;1274;25494;-70
2022/09/15 02:54:40;;;;;;;33.70;18.50;;;;;;;15.91;84.47;97293.64;88457;1273;25364;-71
2022/09/15 02:56:42;;;;;;;29.30;19.80;;;;;;;15.89;84.50;97292.71;88345;1273;99394;-71
2022/09/15 02:58:44;;;;;;;30.60;18.70;;;;;;;15.89;84.56;97291.50;88483;1273;24271;-71
2022/09/15 03:00:45;;;;;;;27.90;18.50;;;;;;;15.84;84.57;97282.60;88436;1273;22687;-71
2022/09/15 03:02:50;;;;;;;36.90;19.10;;;;;;;15.89;84.52;97294.15;88436;1274;100904;-71
2022/09/15 03:04:52;;;;;;;32.20;19.00;;;;;;;15.87;84.54;97294.88;88354;1273;24752;-69
2022/09/15 03:06:53;;;;;;;32.20;18.80;;;;;;;15.86;84.49;97296.34;88431;1273;26534;-69
2022/09/15 03:08:57;;;;;;;33.70;19.10;;;;;;;15.85;84.55;97291.48;88516;1274;99203;-71
2022/09/15 03:10:59;;;;;;;34.80;19.80;;;;;;;15.84;84.63;97291.94;88690;1273;23005;-70
2022/09/15 03:13:01;;;;;;;30.40;18.80;;;;;;;15.84;84.59;97292.67;88534;1273;22767;-69
2022/09/15 03:15:03;;;;;;;32.50;18.60;;;;;;;15.83;84.58;97291.34;88408;1273;98975;-70
2022/09/15 03:17:04;;;;;;;32.70;19.30;;;;;;;15.84;84.63;97295.64;88421;1273;22598;-71
2022/09/15 03:19:06;;;;;;;30.20;18.50;;;;;;;15.85;84.67;97293.17;88523;1273;22579;-71
2022/09/15 03:21:10;;;;;;;34.30;19.90;;;;;;;15.83;84.71;97292.05;88328;1273;99767;-71
2022/09/15 03:23:12;;;;;;;33.30;18.80;;;;;;;15.83;84.70;97293.06;88716;1273;24223;-71
2022/09/15 03:25:15;;;;;;;41.00;20.10;;;;;;;15.84;84.72;97293.17;88535;1273;25448;-71
2022/09/15 03:27:17;;;;;;;38.40;20.50;;;;;;;15.83;84.68;97285.66;88399;1273;98031;-70
2022/09/15 03:29:18;;;;;;;37.20;20.30;;;;;;;15.82;84.63;97283.46;88514;1273;22724;-71
2022/09/15 03:31:20;;;;;;;37.20;19.80;;;;;;;15.82;84.64;97288.41;88548;1273;23495;-70
2022/09/15 03:33:24;;;;;;;63.00;21.30;;;;;;;15.81;84.66;97285.84;88505;1273;99063;-70
2022/09/15 03:35:26;;;;;;;45.80;21.70;;;;;;;15.81;84.69;97278.08;88420;1274;22614;-69
2022/09/15 03:37:27;;;;;;;35.90;20.20;;;;;;;15.80;84.72;97271.74;88489;1273;22592;-69
2022/09/15 03:39:29;;;;;;;30.40;19.70;;;;;;;15.78;84.75;97267.20;88451;1273;99732;-70
2022/09/15 03:41:31;;;;;;;30.80;20.20;;;;;;;15.76;84.76;97268.05;88530;1273;24354;-69
2022/09/15 03:43:34;;;;;;;43.90;19.90;;;;;;;15.77;84.84;97269.59;88483;1273;22655;-69
2022/09/15 03:45:36;;;;;;;32.30;19.10;;;;;;;15.76;84.70;97265.39;88376;1273;99010;-69
2022/09/15 03:47:38;;;;;;;29.80;19.70;;;;;;;15.72;84.70;97264.75;88483;1273;24239;-70
2022/09/15 03:49:39;;;;;;;32.90;18.80;;;;;;;15.72;84.78;97268.48;88578;1273;22668;-69
2022/09/15 03:51:41;;;;;;;35.70;19.60;;;;;;;15.70;84.79;97270.84;88542;1273;99142;-70
2022/09/15 03:53:43;;;;;;;36.40;17.80;;;;;;;15.68;84.84;97263.85;88514;1273;24232;-70
2022/09/15 03:55:45;;;;;;;37.60;18.60;;;;;;;15.67;84.92;97269.27;88457;1273;23292;-70
2022/09/15 03:57:47;;;;;;;40.80;17.50;;;;;;;15.67;84.94;97266.95;88437;1273;99565;-70
2022/09/15 03:59:48;;;;;;;40.20;18.20;;;;;;;15.68;84.93;97267.82;88587;1273;25403;-71
2022/09/15 04:01:50;;;;;;;31.50;18.20;;;;;;;15.67;84.99;97265.95;88659;1273;22572;-70
2022/09/15 04:03:52;;;;;;;37.70;19.90;;;;;;;15.66;84.92;97263.38;88456;1273;100325;-70
2022/09/15 04:05:53;;;;;;;54.60;20.30;;;;;;;15.65;85.05;97265.91;88450;1273;26531;-70
2022/09/15 04:07:55;;;;;;;49.00;20.70;;;;;;;15.66;85.04;97266.02;88612;1273;22643;-69
2022/09/15 04:09:57;;;;;;;40.40;19.50;;;;;;;15.66;85.03;97265.28;88442;1273;100015;-68
2022/09/15 04:11:58;;;;;;;36.00;19.30;;;;;;;15.66;85.05;97259.81;87740;1274;22648;-70
2022/09/15 04:14:00;;;;;;;37.40;19.20;;;;;;;15.66;85.12;97262.47;88526;1274;22740;-70
2022/09/15 04:16:04;;;;;;;32.90;18.50;;;;;;;15.66;85.07;97264.26;88538;1273;99027;-70
2022/09/15 04:18:06;;;;;;;33.30;18.60;;;;;;;15.66;85.09;97262.52;88588;1273;24132;-70
2022/09/15 04:20:08;;;;;;;38.80;18.80;;;;;;;15.65;85.06;97257.80;88577;1273;22849;-70
2022/09/15 04:22:10;;;;;;;41.80;19.00;;;;;;;15.64;85.15;97258.58;88489;1273;98790;-71
2022/09/15 04:24:12;;;;;;;44.50;18.70;;;;;;;15.64;85.12;97259.34;88489;1273;23869;-69
2022/09/15 04:26:27;;;;;;;40.00;19.00;;;;;;;15.64;85.29;97262.30;88530;1273;99244;-70
2022/09/15 04:28:32;;;;;;;40.50;18.90;;;;;;;15.65;85.31;97259.42;88546;1273;22589;-70
2022/09/15 04:30:35;;;;;;;29.90;19.00;;;;;;;15.65;85.19;97257.41;88541;1273;26564;-71
2022/09/15 04:32:37;;;;;;;50.30;19.80;;;;;;;15.65;85.20;97255.28;88620;1273;100282;-71
2022/09/15 04:34:39;;;;;;;44.60;18.80;;;;;;;15.66;85.25;97255.89;88489;1273;22911;-71
2022/09/15 04:36:41;;;;;;;43.50;20.80;;;;;;;15.67;85.11;97249.11;88570;1273;25606;-71
2022/09/15 04:38:43;;;;;;;31.10;19.00;;;;;;;15.68;85.21;97246.95;88441;1273;100326;-71
2022/09/15 04:40:44;;;;;;;37.50;19.10;;;;;;;15.68;85.27;97248.80;88556;1273;22566;-68
2022/09/15 04:42:46;;;;;;;29.70;18.40;;;;;;;15.69;85.27;97255.15;88510;1273;22582;-69
2022/09/15 04:44:48;;;;;;;37.00;19.20;;;;;;;15.68;85.23;97251.85;88273;1273;99212;-71
2022/09/15 04:46:49;;;;;;;26.40;17.40;;;;;;;15.67;85.15;97249.64;88527;1273;22950;-71
2022/09/15 04:48:51;;;;;;;36.40;19.50;;;;;;;15.65;85.19;97252.27;88567;1273;25488;-71
2022/09/15 04:50:53;;;;;;;34.60;18.10;;;;;;;15.65;85.16;97248.98;88414;1273;99299;-71
2022/09/15 04:52:55;;;;;;;29.70;17.50;;;;;;;15.64;85.22;97247.09;88549;1273;23873;-71
2022/09/15 04:54:56;;;;;;;36.10;18.10;;;;;;;15.63;85.18;97244.53;88469;1273;22667;-71
2022/09/15 04:56:58;;;;;;;30.70;18.30;;;;;;;15.63;85.23;97240.67;88489;1273;100052;-72
2022/09/15 04:59:00;;;;;;;27.40;18.10;;;;;;;15.62;85.23;97242.70;88572;1274;22586;-69
2022/09/15 05:01:07;;;;;;;36.60;17.30;;;;;;;15.63;85.24;97244.39;88615;1273;22828;-71
2022/09/15 05:03:11;;;;;;;32.10;18.30;;;;;;;15.63;85.24;97241.48;88448;1274;99564;-70
2022/09/15 05:05:13;;;;;;;30.00;18.60;;;;;;;15.65;85.32;97246.86;88393;1277;22733;-71
2022/09/15 05:07:14;;;;;;;32.70;18.40;;;;;;;15.66;85.36;97245.13;88525;1273;26016;-71
2022/09/15 05:09:16;;;;;;;26.90;18.90;;;;;;;15.68;85.43;97247.96;88454;1273;100788;-71
2022/09/15 05:11:18;;;;;;;23.30;17.00;;;;;;;15.68;85.44;97244.45;88567;1274;24250;-71
2022/09/15 05:13:20;;;;;;;30.00;19.40;;;;;;;15.71;85.36;97247.98;88462;1273;25595;-69
2022/09/15 05:15:23;;;;;;;34.00;20.10;;;;;;;15.74;85.50;97248.27;88269;1274;101177;-70
2022/09/15 05:17:24;;;;;;;37.10;20.00;;;;;;;15.76;85.49;97246.59;88493;1273;22551;-70
2022/09/15 05:19:26;;;;;;;37.00;20.50;;;;;;;15.77;85.47;97245.81;88548;1273;22712;-71
2022/09/15 05:21:27;;;;;;;25.60;19.80;;;;;;;15.80;85.43;97245.43;88564;1273;100320;-72
2022/09/15 05:23:30;;;;;;;33.60;20.20;;;;;;;15.81;85.48;97245.97;88466;1274;22587;-71
2022/09/15 05:25:31;;;;;;;30.10;20.10;;;;;;;15.81;85.49;97247.23;88560;1274;22811;-70
2022/09/15 05:27:33;;;;;;;28.20;19.50;;;;;;;15.85;85.51;97246.33;88316;1274;100729;-70
2022/09/15 05:29:34;;;;;;;29.50;18.30;;;;;;;15.88;85.48;97248.41;88448;1273;24341;-70
2022/09/15 05:31:36;;;;;;;28.20;18.90;;;;;;;15.90;85.61;97251.73;88465;1273;22624;-71
2022/09/15 05:33:38;;;;;;;30.50;17.80;;;;;;;15.92;85.60;97247.95;88425;1273;99457;-71
2022/09/15 05:35:48;;;;;;;24.80;17.00;;;;;;;15.95;85.59;97242.37;88559;1273;22783;-70
2022/09/15 05:37:49;;;;;;;27.70;17.80;;;;;;;15.98;85.55;97248.48;88487;1273;22617;-71
2022/09/15 05:39:51;;;;;;;30.80;17.90;;;;;;;16.00;85.55;97244.16;88506;1273;99155;-69
2022/09/15 05:41:53;;;;;;;29.30;16.20;;;;;;;16.04;85.58;97247.20;87551;1274;24208;-69
2022/09/15 05:43:56;;;;;;;28.30;16.50;;;;;;;16.07;85.55;97249.36;87646;1273;25328;-71
2022/09/15 05:45:58;;;;;;;27.00;17.10;;;;;;;16.09;85.62;97249.79;88727;1273;99577;-71
2022/09/15 05:47:59;;;;;;;28.60;17.90;;;;;;;16.12;85.63;97251.79;88493;1273;22844;-71
2022/09/15 05:50:01;;;;;;;20.50;16.30;;;;;;;16.17;85.70;97250.98;88495;1274;22610;-70
2022/09/15 05:52:03;;;;;;;30.20;15.40;;;;;;;16.19;85.64;97249.38;88391;1274;99389;-69
2022/09/15 05:54:05;;;;;;;20.30;16.30;;;;;;;16.23;85.62;97248.89;88478;1273;25465;-69
2022/09/15 05:56:10;;;;;;;21.90;15.50;;;;;;;16.26;85.67;97249.98;88496;1273;23378;-71
2022/09/15 05:58:14;;;;;;;23.60;14.80;;;;;;;16.30;85.54;97249.77;88679;1273;99274;-71
2022/09/15 06:00:16;;;;;;;29.70;14.70;;;;;;;16.33;85.65;97250.70;88536;1273;23268;-71
2022/09/15 06:02:19;;;;;;;19.70;13.70;;;;;;;16.37;85.64;97253.82;88397;1273;100429;-71
2022/09/15 06:04:20;;;;;;;21.20;14.20;;;;;;;16.38;85.61;97248.45;88627;1274;22607;-72
2022/09/15 06:06:23;;;;;;;20.10;13.50;;;;;;;16.42;85.66;97252.45;88504;1274;22573;-71
2022/09/15 06:08:30;;;;;;;19.40;13.10;;;;;;;16.44;85.68;97251.33;88694;1273;99227;-71
2022/09/15 06:10:32;;;;;;;20.70;13.00;;;;;;;16.47;85.58;97251.55;90095;1273;22566;-70
2022/09/15 06:12:33;;;;;;;29.10;13.20;;;;;;;16.49;85.58;97251.34;88523;1273;26396;-70
2022/09/15 06:14:35;;;;;;;19.50;14.70;;;;;;;16.53;85.57;97247.30;88456;1273;99215;-71
2022/09/15 06:16:37;;;;;;;21.30;13.70;;;;;;;16.55;85.65;97246.89;88566;1274;22709;-71
2022/09/15 06:18:39;;;;;;;20.00;12.80;;;;;;;16.59;85.65;97249.02;88623;1273;22600;-71
2022/09/15 06:20:41;;;;;;;21.60;16.30;;;;;;;16.62;85.66;97246.41;88294;1276;98943;-71
2022/09/15 06:22:44;;;;;;;23.40;14.70;;;;;;;16.64;85.62;97253.61;88406;1273;22585;-72
2022/09/15 06:24:46;;;;;;;19.70;12.50;;;;;;;16.67;85.67;97257.36;88470;1273;24794;-71
2022/09/15 06:26:47;;;;;;;16.40;12.60;;;;;;;16.69;85.59;97256.61;88469;1273;100381;-71
2022/09/15 06:28:55;;;;;;;14.40;12.10;;;;;;;16.72;85.66;97263.60;88318;1275;22628;-70
2022/09/15 06:30:56;;;;;;;13.30;11.50;;;;;;;16.74;85.59;97264.15;88496;1273;22723;-71
2022/09/15 06:32:58;;;;;;;15.30;11.70;;;;;;;16.76;85.66;97263.53;88471;1273;99606;-69
2022/09/15 06:34:59;;;;;;;14.10;11.50;;;;;;;16.79;85.59;97264.66;88561;1273;23346;-72
2022/09/15 06:37:01;;;;;;;18.70;12.00;;;;;;;16.82;85.68;97263.14;88534;1273;25455;-72
2022/09/15 06:39:03;;;;;;;19.30;10.10;;;;;;;16.84;85.68;97263.43;88420;1273;99141;-71
2022/09/15 06:41:06;;;;;;;21.30;10.50;;;;;;;16.87;85.62;97267.83;88395;1273;22795;-70
2022/09/15 06:43:08;;;;;;;21.70;9.50;;;;;;;16.89;85.65;97268.89;88445;1273;22576;-71
2022/09/15 06:45:09;;;;;;;9.80;7.80;;;;;;;16.91;85.55;97271.72;88339;1273;99318;-72
2022/09/15 06:47:14;;;;;;;9.60;7.60;;;;;;;16.93;85.54;97272.95;88576;1272;22571;-72
2022/09/15 06:49:16;;;;;;;13.50;7.40;;;;;;;16.95;85.61;97276.84;88608;1274;22734;-70
2022/09/15 06:51:23;;;;;;;9.30;7.00;;;;;;;16.96;85.61;97276.70;88365;1274;99009;-71
2022/09/15 06:53:27;;;;;;;9.00;5.20;;;;;;;16.98;85.59;97278.11;88632;1273;25519;-72
2022/09/15 06:55:29;;;;;;;7.00;5.00;;;;;;;16.99;85.61;97278.99;88647;1274;23082;-72
2022/09/15 06:57:30;;;;;;;4.90;4.00;;;;;;;17.00;85.55;97277.55;88813;1274;98697;-71
2022/09/15 06:59:32;;;;;;;10.10;4.10;;;;;;;17.03;85.66;97286.80;88798;1274;22886;-72
2022/09/15 07:01:40;;;;;;;4.80;3.80;;;;;;;17.04;85.56;97288.48;88717;1273;23026;-70
2022/09/15 07:03:42;;;;;;;14.00;4.10;;;;;;;17.05;85.48;97295.63;88746;1274;99469;-72
2022/09/15 07:05:45;;;;;;;16.10;3.90;;;;;;;17.05;85.45;97292.08;88590;1275;22564;-72
2022/09/15 07:07:46;;;;;;;11.20;3.30;;;;;;;17.05;85.47;97296.13;88768;1274;22605;-72
2022/09/15 07:09:48;;;;;;;6.80;3.60;;;;;;;17.06;85.47;97302.99;88710;1275;98997;-72
2022/09/15 07:11:50;;;;;;;6.90;3.30;;;;;;;17.07;85.44;97312.15;88815;1274;24468;-71
2022/09/15 07:13:52;;;;;;;11.20;3.40;;;;;;;17.07;85.41;97319.45;88531;1276;24932;-73
2022/09/15 07:15:56;;;;;;;10.60;3.30;;;;;;;17.07;85.45;97328.83;88741;1274;98258;-72
2022/09/15 07:17:58;;;;;;;4.10;3.00;;;;;;;17.06;85.33;97338.64;89009;1274;22589;-72
2022/09/15 07:20:01;;;;;;;5.10;3.20;;;;;;;17.07;85.34;97348.52;88501;1276;23833;-72
2022/09/15 07:22:03;;;;;;;1.70;1.60;;;;;;;17.08;85.34;97361.37;88634;1274;98581;-73
2022/09/15 07:24:04;;;;;;;3.40;1.00;;;;;;;17.01;84.96;97368.14;88710;1273;26687;-71
2022/09/15 07:26:07;;;;;;;1.80;1.10;;;;;;;16.84;84.60;97368.73;88737;1274;22657;-73
2022/09/15 07:28:18;;;;;;;4.00;0.80;;;;;;;16.67;84.48;97350.72;88709;1274;98027;-73
2022/09/15 07:30:21;;;;;;;2.30;0.80;;;;;;;16.49;84.40;97356.48;88737;1273;22669;-73
2022/09/15 07:32:23;;;;;;;17.60;1.20;;;;;;;16.36;84.55;97365.99;88736;1274;98234;-73
2022/09/15 07:34:25;;;;;;;4.60;1.00;;;;;;;16.20;84.46;97378.27;88811;1274;22755;-74
2022/09/15 07:36:28;;;;;;;1.50;0.80;;;;;;;16.05;84.50;97387.37;88892;1274;24219;-73
2022/09/15 07:38:30;;;;;;;2.30;0.70;;;;;;;15.89;84.56;97398.65;88823;1276;99307;-75
2022/09/15 07:40:32;;;;;;;5.10;1.10;;;;;;;15.75;84.64;97399.59;88723;1275;22567;-72
2022/09/15 07:42:35;;;;;;;7.50;0.90;;;;;;;15.67;84.77;97403.89;88736;1275;23110;-71
2022/09/15 07:44:36;;;;;;;4.40;0.90;;;;;;;15.58;84.92;97427.77;88519;1274;97868;-72
2022/09/15 07:46:38;;;;;;;3.10;0.90;;;;;;;15.50;84.90;97424.73;88820;1274;22557;-73
2022/09/15 07:48:44;;;;;;;4.60;1.30;;;;;;;15.42;84.98;97423.30;88796;1274;22754;-73
2022/09/15 07:50:46;;;;;;;3.90;1.40;;;;;;;15.37;85.07;97432.83;88634;1273;99368;-72
2022/09/15 07:52:48;;;;;;;10.60;1.50;;;;;;;15.32;85.11;97438.61;88729;1274;22614;-73
2022/09/15 07:54:49;;;;;;;3.30;1.00;;;;;;;15.27;85.14;97445.97;88652;1274;22616;-74
2022/09/15 07:56:51;;;;;;;1.80;0.90;;;;;;;15.22;85.19;97449.13;88540;1274;98645;-74
2022/09/15 07:58:53;;;;;;;1.10;1.00;;;;;;;15.18;85.20;97459.59;88756;1274;23207;-71
2022/09/15 08:01:01;;;;;;;3.50;1.20;;;;;;;15.15;85.28;97463.02;88633;1274;22499;-74
2022/09/15 08:03:04;;;;;;;5.40;1.10;;;;;;;15.11;85.42;97461.94;89214;1274;98566;-72
2022/09/15 08:05:06;;;;;;;3.00;1.60;;;;;;;15.10;85.39;97467.58;88670;1274;22574;-74
2022/09/15 08:07:07;;;;;;;1.30;1.20;;;;;;;15.09;85.39;97470.59;88664;1276;25699;-74
2022/09/15 08:09:13;;;;;;;1.40;1.30;;;;;;;15.10;85.42;97474.21;88512;1278;98040;-73
2022/09/15 08:11:19;;;;;;;7.80;1.70;;;;;;;15.10;85.48;97473.13;88642;1273;22552;-73
2022/09/15 08:13:22;;;;;;;5.00;1.80;;;;;;;15.11;85.60;97472.92;89235;1275;23068;-72
2022/09/15 08:15:24;;;;;;;6.40;1.90;;;;;;;15.11;85.65;97477.02;88550;1274;97657;-73
2022/09/15 08:17:25;;;;;;;2.40;1.70;;;;;;;15.14;85.76;97486.96;88600;1275;22635;-74
2022/09/15 08:19:28;;;;;;;1.80;1.70;;;;;;;15.17;85.64;97494.16;88502;1274;22745;-73
2022/09/15 08:21:30;;;;;;;2.60;1.90;;;;;;;15.20;85.71;97501.67;88449;1274;99301;-73
2022/09/15 08:23:32;;;;;;;4.40;2.60;;;;;;;15.21;85.69;97499.48;88511;1274;24126;-73
2022/09/15 08:25:33;;;;;;;4.70;2.50;;;;;;;15.23;85.67;97497.01;88341;1274;26742;-74
2022/09/15 08:27:35;;;;;;;13.50;2.80;;;;;;;15.25;85.77;97498.91;88358;1274;98561;-72
2022/09/15 08:29:37;;;;;;;6.00;3.00;;;;;;;15.27;85.67;97502.66;88312;1274;25729;-74
2022/09/15 08:31:39;;;;;;;7.90;2.70;;;;;;;15.29;85.66;97508.98;88545;1273;22601;-73
2022/09/15 08:33:41;;;;;;;4.00;2.40;;;;;;;15.32;85.73;97519.00;88504;1274;97641;-73
2022/09/15 08:35:42;;;;;;;2.60;2.40;;;;;;;15.35;85.76;97528.92;88543;1274;22634;-73
2022/09/15 08:37:45;;;;;;;4.90;2.40;;;;;;;15.39;85.83;97537.25;88633;1274;22625;-72
2022/09/15 08:39:47;;;;;;;4.10;2.00;;;;;;;15.43;85.90;97541.52;88519;1274;97721;-72
2022/09/15 08:41:51;;;;;;;4.40;2.80;;;;;;;15.45;85.80;97540.77;88696;1274;23327;-72
2022/09/15 08:44:30;;;;;;;6.00;2.00;;;;;;;15.50;85.81;97534.30;88525;1274;25893;-71
2022/09/15 08:46:58;;;;;;;2.70;2.40;;;;;;;15.57;85.90;97531.20;88605;1274;22554;-73
2022/09/15 08:49:07;;;;;;;5.30;2.60;;;;;;;15.67;86.04;97537.07;88575;1274;22596;-73
2022/09/15 08:51:19;;;;;;;2.10;2.00;;;;;;;15.75;86.07;97545.36;88563;1274;98457;-72
2022/09/15 08:53:29;;;;;;;2.60;2.00;;;;;;;15.77;85.78;97546.39;88457;1274;24383;-73
2022/09/15 08:55:43;;;;;;;6.00;1.80;;;;;;;15.81;85.74;97546.94;88565;1273;22715;-72
2022/09/15 08:57:45;;;;;;;1.60;1.50;;;;;;;15.85;85.65;97541.30;88558;1274;99076;-72
2022/09/15 08:59:47;;;;;;;3.70;1.60;;;;;;;15.89;85.76;97548.02;88739;1274;22717;-73
2022/09/15 09:02:11;;;;;;;2.70;1.60;;;;;;;15.93;85.80;97546.00;88610;1275;22565;-73
2022/09/15 09:04:37;;;;;;;2.40;2.20;;;;;;;15.99;85.62;97546.17;88599;1275;98002;-73
2022/09/15 09:07:21;;;;;;;2.40;2.10;;;;;;;16.04;85.63;97548.89;88667;1273;22554;-74
2022/09/15 09:09:40;;;;;;;4.40;2.20;;;;;;;16.09;85.50;97557.63;88183;1280;99234;-73
2022/09/15 09:12:13;;;;;;;5.60;2.20;;;;;;;16.16;85.64;97565.09;88206;1281;22910;-72
2022/09/15 09:14:35;;;;;;;2.00;1.80;;;;;;;16.22;85.48;97574.02;88347;1281;24945;-74
2022/09/15 09:17:15;;;;;;;2.40;2.20;;;;;;;16.19;85.25;97582.20;88213;1281;25268;-73
2022/09/15 09:19:37;;;;;;;3.40;3.20;;;;;;;16.20;85.26;97582.87;87731;1286;24269;-73
2022/09/15 09:21:54;;;;;;;1.80;1.70;;;;;;;16.20;85.24;97581.61;87050;1293;98996;-74
2022/09/15 09:24:17;;;;;;;1.70;1.60;;;;;;;16.21;85.23;97584.54;86910;1294;22810;-72
2022/09/15 09:26:20;;;;;;;2.20;2.00;;;;;;;16.24;85.19;97593.06;86965;1297;98984;-73
2022/09/15 09:28:46;;;;;;;1.70;1.60;;;;;;;16.28;85.16;97597.38;87076;1294;26215;-74
2022/09/15 09:30:48;;;;;;;2.30;2.20;;;;;;;16.31;85.25;97605.34;86998;1294;23830;-73
2022/09/15 09:33:03;;;;;;;5.40;2.00;;;;;;;16.35;85.16;97603.78;87159;1294;98661;-73
2022/09/15 09:35:28;;;;;;;3.70;2.00;;;;;;;16.38;85.16;97601.67;87254;1297;24282;-74
2022/09/15 09:37:32;;;;;;;2.20;2.00;;;;;;;16.42;85.05;97601.86;87253;1294;22601;-71
2022/09/15 09:39:34;;;;;;;2.00;1.90;;;;;;;16.45;85.06;97599.44;87154;1294;99446;-72
2022/09/15 09:41:37;;;;;;;2.20;2.10;;;;;;;16.50;85.06;97602.54;87012;1297;22815;-70